Time;durP1;ratioP1;P1;durP2;ratioP2;P2;SDS_P1;SDS_P2;PMS_P1;PMS_P2;Temp;Humidity;BMP_temperature;BMP_pressure;BME280_temperature;BME280_humidity;BME280_pressure;Samples;Min_cycle;Max_cycle;Signal;HPM_P1;HPM_P2
2021/08/09 00:01:42;;;;;;;9.30;4.53;;;16.60;99.90;;;;;;5000379;28;20085;-75
2021/08/09 00:04:09;;;;;;;11.43;5.10;;;16.60;99.90;;;;;;4996494;28;20116;-79
2021/08/09 00:06:36;;;;;;;5.82;4.30;;;16.50;99.90;;;;;;4995988;28;20051;-75
2021/08/09 00:09:04;;;;;;;7.75;4.40;;;16.50;99.90;;;;;;4996231;28;20046;-76
2021/08/09 00:11:31;;;;;;;9.38;4.68;;;16.50;99.90;;;;;;4995988;28;20054;-77
2021/08/09 00:13:59;;;;;;;8.38;4.60;;;16.40;99.90;;;;;;4995575;28;20424;-75
2021/08/09 00:16:26;;;;;;;9.82;4.43;;;16.30;99.90;;;;;;4998464;28;20554;-76
2021/08/09 00:18:53;;;;;;;6.95;4.30;;;16.30;99.90;;;;;;5015519;28;20052;-75
2021/08/09 00:21:21;;;;;;;10.43;4.57;;;16.30;99.90;;;;;;5014176;28;20085;-75
2021/08/09 00:23:49;;;;;;;7.10;4.10;;;16.20;99.90;;;;;;5015007;28;20046;-75
2021/08/09 00:26:16;;;;;;;9.75;4.20;;;16.20;99.90;;;;;;5015284;28;20046;-74
2021/08/09 00:28:43;;;;;;;6.55;4.10;;;16.20;99.90;;;;;;5014432;28;20662;-74
2021/08/09 00:31:11;;;;;;;6.88;4.05;;;16.20;99.90;;;;;;5001957;28;20085;-75
2021/08/09 00:33:38;;;;;;;6.53;4.40;;;16.20;99.90;;;;;;4995424;28;20107;-75
2021/08/09 00:36:05;;;;;;;7.47;4.22;;;16.20;99.90;;;;;;4994919;28;20157;-75
2021/08/09 00:38:32;;;;;;;8.30;4.30;;;16.20;99.90;;;;;;4995986;28;20074;-76
2021/08/09 00:40:59;;;;;;;9.10;4.65;;;16.20;99.90;;;;;;5006235;28;20089;-75
2021/08/09 00:43:26;;;;;;;10.82;4.80;;;16.20;99.90;;;;;;5014824;28;20132;-76
2021/08/09 00:45:53;;;;;;;8.65;4.25;;;16.20;99.90;;;;;;5014915;28;20124;-76
2021/08/09 00:48:21;;;;;;;5.55;4.10;;;16.20;99.90;;;;;;5014417;28;20148;-74
2021/08/09 00:50:49;;;;;;;7.38;4.10;;;16.10;99.90;;;;;;5005944;28;20116;-75
2021/08/09 00:53:16;;;;;;;7.60;4.28;;;16.10;99.90;;;;;;4997664;28;20053;-75
2021/08/09 00:55:44;;;;;;;8.27;4.32;;;16.00;99.90;;;;;;5004949;28;20078;-75
2021/08/09 00:58:12;;;;;;;8.25;4.30;;;16.00;99.90;;;;;;4995153;28;20089;-76
2021/08/09 01:00:39;;;;;;;7.72;4.50;;;15.90;99.90;;;;;;5010821;28;20045;-75
2021/08/09 01:03:06;;;;;;;7.93;4.32;;;15.90;99.90;;;;;;5013368;28;20102;-74
2021/08/09 01:05:34;;;;;;;8.25;4.15;;;15.90;99.90;;;;;;5014638;28;20092;-74
2021/08/09 01:08:14;;;;;;;8.43;4.07;;;15.80;99.90;;;;;;5014214;28;20050;-75
2021/08/09 01:10:48;;;;;;;9.40;4.20;;;15.80;99.90;;;;;;5005949;28;20092;-75
2021/08/09 01:13:21;;;;;;;7.90;4.40;;;15.80;99.90;;;;;;4994179;28;20054;-75
2021/08/09 01:15:53;;;;;;;10.70;4.90;;;15.80;99.90;;;;;;4994464;28;20078;-76
2021/08/09 01:18:22;;;;;;;7.28;4.22;;;15.80;99.90;;;;;;4996418;28;20129;-75
2021/08/09 01:20:54;;;;;;;7.45;4.32;;;15.70;99.90;;;;;;5014145;28;20146;-75
2021/08/09 01:23:40;;;;;;;9.03;4.43;;;15.70;99.90;;;;;;5014020;28;20080;-74
2021/08/09 01:26:13;;;;;;;5.65;4.40;;;15.70;99.90;;;;;;5013756;28;20103;-76
2021/08/09 01:28:43;;;;;;;9.48;4.50;;;15.70;99.90;;;;;;5009421;28;20462;-75
2021/08/09 01:31:11;;;;;;;7.93;4.38;;;15.60;99.90;;;;;;4994170;28;20129;-75
2021/08/09 01:33:41;;;;;;;8.18;4.38;;;15.60;99.90;;;;;;4993783;28;20594;-74
2021/08/09 01:36:09;;;;;;;9.55;4.15;;;15.60;99.90;;;;;;4994708;28;20458;-74
2021/08/09 01:38:37;;;;;;;9.90;4.40;;;15.50;99.90;;;;;;4997503;28;20042;-74
2021/08/09 01:41:06;;;;;;;8.20;4.40;;;15.50;99.90;;;;;;5013740;28;20133;-74
2021/08/09 01:43:34;;;;;;;6.18;4.13;;;15.50;99.90;;;;;;5013335;28;20484;-73
2021/08/09 01:46:03;;;;;;;8.95;4.50;;;15.50;99.90;;;;;;5013645;28;20056;-74
2021/08/09 01:48:31;;;;;;;6.85;4.20;;;15.50;99.90;;;;;;5010831;28;20084;-75
2021/08/09 01:50:58;;;;;;;8.98;4.10;;;15.60;99.90;;;;;;5003280;28;20085;-75
2021/08/09 01:53:25;;;;;;;6.32;4.00;;;15.60;99.90;;;;;;5013382;28;20489;-75
2021/08/09 01:55:53;;;;;;;9.07;4.65;;;15.60;99.90;;;;;;5013557;28;20081;-77
2021/08/09 01:58:20;;;;;;;10.45;4.57;;;15.70;99.90;;;;;;5011869;28;20580;-77
2021/08/09 02:00:47;;;;;;;8.30;4.40;;;15.70;99.90;;;;;;4995028;28;20054;-76
2021/08/09 02:03:16;;;;;;;9.57;4.70;;;15.70;99.90;;;;;;4993951;28;20423;-75
2021/08/09 02:05:43;;;;;;;7.63;3.90;;;15.70;99.90;;;;;;4995547;28;20397;-78
2021/08/09 02:08:12;;;;;;;7.88;4.60;;;15.80;99.90;;;;;;4999194;28;20478;-79
2021/08/09 02:10:40;;;;;;;7.63;4.35;;;15.80;99.90;;;;;;5016054;28;20513;-78
2021/08/09 02:13:10;;;;;;;6.97;4.60;;;15.70;99.90;;;;;;5006820;28;20052;-80
2021/08/09 02:15:43;;;;;;;6.72;4.15;;;15.80;99.90;;;;;;4996912;28;20130;-79
2021/08/09 02:18:18;;;;;;;9.00;4.43;;;15.80;99.90;;;;;;5015784;28;20200;-79
2021/08/09 02:20:46;;;;;;;7.20;4.60;;;15.70;99.90;;;;;;5007877;28;20053;-79
2021/08/09 02:23:18;;;;;;;6.10;4.50;;;15.70;99.90;;;;;;5011889;28;20068;-80
2021/08/09 02:25:49;;;;;;;8.18;4.53;;;15.70;99.90;;;;;;5015162;28;20495;-79
2021/08/09 02:28:18;;;;;;;8.93;4.07;;;15.70;99.90;;;;;;5014735;28;20061;-79
2021/08/09 02:30:47;;;;;;;8.43;3.95;;;15.80;99.90;;;;;;5001922;28;20064;-79
2021/08/09 02:33:16;;;;;;;7.82;4.68;;;15.80;99.90;;;;;;5010265;28;20145;-78
2021/08/09 02:35:45;;;;;;;8.55;4.28;;;15.80;99.90;;;;;;5001153;28;20507;-77
2021/08/09 02:38:12;;;;;;;6.03;4.15;;;15.80;99.90;;;;;;5004435;28;20046;-78
2021/08/09 02:40:41;;;;;;;7.13;4.50;;;15.70;99.90;;;;;;4994678;28;20050;-77
2021/08/09 02:43:08;;;;;;;7.95;4.18;;;15.80;99.90;;;;;;4995015;28;20057;-78
2021/08/09 02:45:36;;;;;;;9.25;4.38;;;15.70;99.90;;;;;;4997995;28;20192;-78
2021/08/09 02:48:04;;;;;;;7.25;4.05;;;15.70;99.90;;;;;;5014809;28;20489;-79
2021/08/09 02:50:32;;;;;;;10.07;4.30;;;15.70;99.90;;;;;;4998225;28;20205;-79
2021/08/09 02:53:00;;;;;;;7.35;4.30;;;15.60;99.90;;;;;;4997998;28;20085;-79
2021/08/09 02:55:28;;;;;;;7.30;4.22;;;15.70;99.90;;;;;;4999019;28;20162;-79
2021/08/09 02:57:55;;;;;;;6.32;4.25;;;15.70;99.90;;;;;;5010883;28;20056;-79
2021/08/09 03:00:22;;;;;;;9.23;4.60;;;15.70;99.90;;;;;;5012281;28;20133;-79
2021/08/09 03:02:51;;;;;;;8.50;4.60;;;15.70;99.90;;;;;;5017287;28;20118;-79
2021/08/09 03:05:19;;;;;;;7.03;4.60;;;15.70;99.90;;;;;;5013692;28;20148;-79
2021/08/09 03:07:49;;;;;;;7.80;4.43;;;15.60;99.90;;;;;;5002494;28;20141;-79
2021/08/09 03:10:16;;;;;;;7.80;3.95;;;15.60;99.90;;;;;;5014261;28;20517;-79
2021/08/09 03:12:44;;;;;;;7.85;4.72;;;15.60;99.90;;;;;;5016050;28;20479;-79
2021/08/09 03:15:12;;;;;;;9.68;4.65;;;15.60;99.90;;;;;;4998767;28;20046;-79
2021/08/09 03:17:39;;;;;;;7.57;4.43;;;15.50;99.90;;;;;;5008595;28;20078;-79
2021/08/09 03:20:07;;;;;;;9.50;4.88;;;15.50;99.90;;;;;;5005031;28;20510;-79
2021/08/09 03:22:34;;;;;;;8.23;4.40;;;15.40;99.90;;;;;;5003048;28;20129;-79
2021/08/09 03:25:02;;;;;;;13.43;4.47;;;15.40;99.90;;;;;;5005730;28;20046;-78
2021/08/09 03:27:29;;;;;;;11.57;4.85;;;15.30;99.90;;;;;;5010750;28;20057;-78
2021/08/09 03:29:56;;;;;;;9.48;4.78;;;15.30;99.90;;;;;;4997495;28;20161;-79
2021/08/09 03:32:23;;;;;;;8.30;4.78;;;15.30;99.90;;;;;;5010400;28;20574;-79
2021/08/09 03:34:50;;;;;;;12.13;5.28;;;15.20;99.90;;;;;;5002925;28;20336;-79
2021/08/09 03:37:17;;;;;;;10.80;5.05;;;15.20;99.90;;;;;;5001248;28;20046;-78
2021/08/09 03:39:44;;;;;;;8.35;4.50;;;15.20;99.90;;;;;;4992768;28;20054;-78
2021/08/09 03:42:12;;;;;;;6.80;4.55;;;15.30;99.90;;;;;;4992776;28;20057;-78
2021/08/09 03:44:39;;;;;;;9.70;4.55;;;15.30;99.90;;;;;;4992747;28;20047;-77
2021/08/09 03:47:06;;;;;;;7.47;4.60;;;15.30;99.90;;;;;;4999375;28;20129;-78
2021/08/09 03:49:32;;;;;;;9.15;4.30;;;15.30;99.90;;;;;;5005301;28;20047;-78
2021/08/09 03:51:59;;;;;;;7.68;4.50;;;15.30;99.90;;;;;;4997296;28;20077;-78
2021/08/09 03:54:26;;;;;;;9.60;4.93;;;15.20;99.90;;;;;;5012235;28;20050;-76
2021/08/09 03:56:53;;;;;;;7.60;4.38;;;15.20;99.90;;;;;;5007434;28;20085;-76
2021/08/09 03:59:21;;;;;;;9.05;4.65;;;15.20;99.90;;;;;;5011539;28;20064;-78
2021/08/09 04:01:49;;;;;;;10.52;4.35;;;15.20;99.90;;;;;;5008614;28;20503;-78
2021/08/09 04:04:16;;;;;;;7.65;4.78;;;15.20;99.90;;;;;;4992541;28;20503;-78
2021/08/09 04:06:43;;;;;;;8.65;4.63;;;15.20;99.90;;;;;;4995014;28;20097;-77
2021/08/09 04:09:10;;;;;;;7.93;4.75;;;15.30;99.90;;;;;;4997688;28;20047;-78
2021/08/09 04:11:37;;;;;;;7.75;4.45;;;15.30;99.90;;;;;;5009259;28;20089;-78
2021/08/09 04:14:04;;;;;;;10.90;4.75;;;15.30;99.90;;;;;;4996833;28;20133;-80
2021/08/09 04:16:33;;;;;;;7.68;4.55;;;15.30;99.90;;;;;;4999232;28;20129;-79
2021/08/09 04:18:59;;;;;;;10.02;4.30;;;15.30;99.90;;;;;;5015392;28;20133;-79
2021/08/09 04:21:26;;;;;;;8.60;4.80;;;15.30;99.90;;;;;;5000160;28;20610;-79
2021/08/09 04:23:53;;;;;;;7.07;4.80;;;15.20;99.90;;;;;;5000333;28;20079;-80
2021/08/09 04:26:20;;;;;;;8.85;4.72;;;15.20;99.90;;;;;;5016302;28;20054;-79
2021/08/09 04:28:48;;;;;;;9.52;4.60;;;15.30;99.90;;;;;;5000650;28;20050;-79
2021/08/09 04:31:15;;;;;;;7.90;4.40;;;15.30;99.90;;;;;;5014715;28;20102;-78
2021/08/09 04:33:44;;;;;;;9.35;4.80;;;15.30;99.90;;;;;;5017106;28;20058;-78
2021/08/09 04:36:11;;;;;;;10.52;4.75;;;15.20;99.90;;;;;;5010801;28;20476;-78
2021/08/09 04:38:38;;;;;;;9.32;4.47;;;15.30;99.90;;;;;;5012675;28;20485;-78
2021/08/09 04:41:07;;;;;;;7.78;4.35;;;15.30;99.90;;;;;;5016840;28;20046;-78
2021/08/09 04:43:35;;;;;;;7.18;4.40;;;15.40;99.90;;;;;;5004579;28;20050;-80
2021/08/09 04:46:02;;;;;;;9.75;4.60;;;15.40;99.90;;;;;;5012980;28;20041;-80
2021/08/09 04:48:28;;;;;;;6.30;4.22;;;15.50;99.90;;;;;;5011476;28;20057;-79
2021/08/09 04:50:57;;;;;;;6.82;4.35;;;15.50;99.90;;;;;;5020073;28;20082;-79
2021/08/09 04:53:24;;;;;;;8.60;4.35;;;15.70;99.90;;;;;;5002567;28;20134;-79
2021/08/09 04:55:50;;;;;;;7.65;4.15;;;15.70;99.90;;;;;;5001974;28;20590;-79
2021/08/09 04:58:17;;;;;;;7.45;4.70;;;15.80;99.90;;;;;;5009086;28;20109;-79
2021/08/09 05:00:44;;;;;;;8.75;4.07;;;15.80;99.90;;;;;;5001627;28;20130;-78
2021/08/09 05:03:11;;;;;;;11.13;4.50;;;15.90;99.90;;;;;;5004546;28;20089;-79
2021/08/09 05:05:38;;;;;;;6.70;4.50;;;15.90;99.90;;;;;;5001291;28;20134;-78
2021/08/09 05:10:38;;;;;;;8.55;5.00;;;16.00;99.90;;;;;;5078478;23;20084;-85
2021/08/09 05:13:05;;;;;;;7.55;4.75;;;16.00;99.90;;;;;;5027552;28;20069;-85
2021/08/09 05:15:34;;;;;;;11.85;4.60;;;16.00;99.90;;;;;;5027794;28;20092;-83
2021/08/09 05:18:01;;;;;;;6.72;4.53;;;16.00;99.90;;;;;;5028630;28;20074;-85
2021/08/09 05:20:28;;;;;;;7.80;4.32;;;16.00;99.90;;;;;;5012603;28;20046;-84
2021/08/09 05:22:55;;;;;;;7.30;4.60;;;16.00;99.90;;;;;;5003809;28;20054;-83
2021/08/09 05:25:23;;;;;;;11.02;5.13;;;16.00;99.90;;;;;;5006616;28;20038;-84
2021/08/09 05:27:51;;;;;;;8.82;4.47;;;16.00;99.90;;;;;;5016234;28;20125;-83
2021/08/09 05:30:18;;;;;;;9.48;5.20;;;16.00;99.90;;;;;;5013029;28;20086;-85
2021/08/09 05:32:46;;;;;;;7.47;4.28;;;16.00;99.90;;;;;;5013409;28;20053;-83
2021/08/09 05:35:13;;;;;;;7.35;4.55;;;15.90;99.90;;;;;;5009651;28;20046;-82
2021/08/09 05:37:40;;;;;;;6.43;4.38;;;15.90;99.90;;;;;;5007518;28;20097;-82
2021/08/09 05:40:09;;;;;;;8.55;4.85;;;15.80;99.90;;;;;;5003925;28;20687;-82
2021/08/09 05:42:35;;;;;;;11.10;6.28;;;15.80;99.90;;;;;;5011271;28;20042;-83
2021/08/09 05:45:05;;;;;;;6.90;4.45;;;15.90;99.90;;;;;;5012592;28;20038;-82
2021/08/09 05:47:32;;;;;;;9.25;4.60;;;16.00;99.90;;;;;;5013274;28;20078;-82
2021/08/09 05:49:59;;;;;;;8.77;4.75;;;16.00;99.90;;;;;;5015408;28;20124;-83
2021/08/09 05:52:27;;;;;;;13.23;4.75;;;16.10;99.90;;;;;;5012578;28;20051;-80
2021/08/09 05:55:05;;;;;;;9.57;4.85;;;16.20;99.90;;;;;;5013304;28;20042;-83
2021/08/09 05:57:32;;;;;;;8.98;4.65;;;16.20;99.90;;;;;;5011559;28;20054;-84
2021/08/09 05:59:59;;;;;;;7.68;4.47;;;16.20;99.90;;;;;;5015087;28;20081;-83
2021/08/09 06:02:27;;;;;;;10.13;4.28;;;16.30;99.90;;;;;;5001949;28;20116;-81
2021/08/09 06:04:54;;;;;;;9.00;4.47;;;16.40;99.90;;;;;;5006387;28;20074;-82
2021/08/09 06:07:21;;;;;;;11.77;4.70;;;16.40;99.90;;;;;;5012587;28;20084;-83
2021/08/09 06:09:48;;;;;;;18.17;4.50;;;16.50;99.90;;;;;;5017734;28;20057;-84
2021/08/09 06:12:15;;;;;;;7.00;4.40;;;16.50;99.90;;;;;;5002428;28;20061;-84
2021/08/09 06:14:42;;;;;;;9.20;4.78;;;16.60;99.90;;;;;;5002615;28;20048;-84
2021/08/09 06:17:14;;;;;;;7.72;4.50;;;16.60;99.90;;;;;;5002810;28;20105;-84
2021/08/09 06:20:02;;;;;;;9.45;4.80;;;16.50;99.90;;;;;;5005061;28;20086;-84
2021/08/09 06:22:41;;;;;;;12.20;4.72;;;16.70;99.90;;;;;;5000473;28;20058;-84
2021/08/09 06:25:14;;;;;;;14.73;5.00;;;16.80;99.90;;;;;;5009350;28;20498;-85
2021/08/09 06:27:44;;;;;;;10.10;4.75;;;16.90;99.90;;;;;;5013808;28;20046;-85
2021/08/09 06:33:01;;;;;;;12.50;4.82;;;17.20;99.90;;;;;;5009025;28;20153;-81
2021/08/09 06:35:33;;;;;;;13.15;4.47;;;17.30;99.90;;;;;;5004282;28;20050;-85
2021/08/09 06:38:13;;;;;;;9.10;4.40;;;17.30;99.90;;;;;;5012274;28;20046;-85
2021/08/09 06:40:43;;;;;;;9.27;4.63;;;17.30;99.90;;;;;;5004522;28;20054;-84
2021/08/09 06:43:10;;;;;;;13.35;4.57;;;17.30;99.90;;;;;;5006772;28;20069;-84
2021/08/09 06:45:41;;;;;;;12.90;4.60;;;17.30;99.90;;;;;;5004196;28;20141;-82
2021/08/09 06:48:10;;;;;;;16.10;5.63;;;17.40;99.90;;;;;;5004566;28;20058;-82
2021/08/09 06:50:39;;;;;;;12.07;4.65;;;17.40;99.90;;;;;;5024168;28;20101;-81
2021/08/09 06:53:06;;;;;;;13.18;4.53;;;17.60;99.90;;;;;;5014418;28;20046;-82
2021/08/09 06:55:33;;;;;;;11.43;5.28;;;17.70;99.90;;;;;;5005381;28;20573;-82
2021/08/09 06:58:00;;;;;;;7.38;3.50;;;17.90;99.90;;;;;;5009903;28;20123;-84
2021/08/09 07:00:33;;;;;;;6.72;4.00;;;18.10;99.90;;;;;;5020291;28;20065;-83
2021/08/09 07:03:06;;;;;;;8.10;3.70;;;18.20;99.90;;;;;;5011299;28;20081;-85
2021/08/09 07:05:39;;;;;;;8.23;3.70;;;18.30;99.90;;;;;;5014663;28;20049;-83
2021/08/09 07:08:07;;;;;;;7.18;3.33;;;18.60;99.90;;;;;;5006668;28;20133;-82
2021/08/09 07:10:34;;;;;;;9.25;3.47;;;19.20;99.90;;;;;;5015234;28;20114;-84
2021/08/09 07:13:01;;;;;;;7.13;3.63;;;20.00;99.90;;;;;;5001485;28;20050;-81
2021/08/09 07:15:29;;;;;;;6.32;3.22;;;20.70;99.90;;;;;;5004826;28;20101;-82
2021/08/09 07:17:56;;;;;;;6.65;3.00;;;21.10;99.90;;;;;;5020102;28;20484;-83
2021/08/09 07:20:24;;;;;;;5.70;3.33;;;21.30;99.90;;;;;;5017263;28;20051;-83
2021/08/09 07:22:52;;;;;;;4.50;3.00;;;21.30;99.90;;;;;;5013819;28;20053;-83
2021/08/09 07:25:20;;;;;;;6.78;3.30;;;21.20;99.90;;;;;;5017053;28;20100;-83
2021/08/09 07:27:47;;;;;;;6.78;3.55;;;21.20;99.90;;;;;;5014598;28;20046;-86
2021/08/09 07:30:15;;;;;;;8.15;3.30;;;21.70;99.90;;;;;;5002670;28;20050;-83
2021/08/09 07:32:42;;;;;;;6.30;3.45;;;22.40;99.90;;;;;;5002278;28;20054;-83
2021/08/09 07:35:10;;;;;;;6.85;3.70;;;23.10;99.90;;;;;;5008038;28;20050;-83
2021/08/09 07:37:37;;;;;;;5.20;3.22;;;23.70;99.90;;;;;;5014019;28;20114;-82
2021/08/09 07:40:06;;;;;;;8.15;3.45;;;23.80;99.90;;;;;;5013122;28;20583;-83
2021/08/09 07:42:34;;;;;;;5.90;3.00;;;23.40;99.90;;;;;;5015614;28;20082;-84
2021/08/09 07:45:00;;;;;;;7.35;3.22;;;23.60;99.90;;;;;;5007756;28;20073;-82
2021/08/09 07:47:29;;;;;;;5.82;3.20;;;23.80;99.90;;;;;;5025039;28;20097;-84
2021/08/09 07:49:56;;;;;;;7.00;3.13;;;23.70;99.90;;;;;;5026080;28;20046;-83
2021/08/09 07:52:23;;;;;;;7.07;3.10;;;23.50;99.90;;;;;;5017722;28;20151;-82
2021/08/09 07:54:49;;;;;;;7.30;3.53;;;23.30;99.90;;;;;;5007746;28;20077;-83
2021/08/09 07:57:18;;;;;;;5.70;3.08;;;23.10;99.90;;;;;;5014494;28;20047;-81
2021/08/09 07:59:44;;;;;;;9.50;3.17;;;22.80;99.90;;;;;;5034319;28;20050;-81
2021/08/09 08:02:11;;;;;;;5.63;3.47;;;22.60;99.90;;;;;;5020937;28;20039;-82
2021/08/09 08:04:38;;;;;;;6.60;3.45;;;22.60;99.90;;;;;;5018997;28;20061;-81
2021/08/09 08:07:05;;;;;;;5.60;3.03;;;22.70;99.90;;;;;;5019545;28;20041;-83
2021/08/09 08:09:32;;;;;;;5.22;3.17;;;22.90;99.90;;;;;;5017396;28;20494;-83
2021/08/09 08:12:01;;;;;;;7.47;3.58;;;23.40;99.90;;;;;;5019101;28;20225;-83
2021/08/09 08:14:30;;;;;;;5.70;2.72;;;24.00;99.90;;;;;;5008296;28;20080;-82
2021/08/09 08:16:57;;;;;;;5.95;2.97;;;24.60;99.90;;;;;;5023094;28;20069;-84
2021/08/09 08:19:24;;;;;;;5.25;2.92;;;25.10;99.90;;;;;;5023393;28;20054;-82
2021/08/09 08:21:50;;;;;;;7.30;3.17;;;25.60;99.90;;;;;;5015750;28;20058;-83
2021/08/09 08:24:17;;;;;;;6.40;2.88;;;26.00;99.90;;;;;;5022297;28;20141;-81
2021/08/09 08:26:44;;;;;;;5.68;2.80;;;26.20;99.90;;;;;;5018412;28;20073;-81
2021/08/09 08:29:11;;;;;;;7.85;3.00;;;26.10;99.90;;;;;;5001867;28;20096;-82
2021/08/09 08:31:41;;;;;;;6.75;2.50;;;26.20;99.90;;;;;;5005563;28;20137;-82
2021/08/09 08:34:08;;;;;;;5.80;3.03;;;26.50;99.90;;;;;;5011589;28;20459;-81
2021/08/09 08:36:36;;;;;;;4.95;2.72;;;26.50;99.90;;;;;;5014813;28;20341;-80
2021/08/09 08:39:03;;;;;;;5.70;3.00;;;26.30;99.90;;;;;;5010609;28;20069;-81
2021/08/09 08:41:31;;;;;;;6.90;2.58;;;26.20;99.90;;;;;;5020753;28;20113;-81
2021/08/09 08:43:58;;;;;;;5.60;2.90;;;26.10;99.90;;;;;;5021625;28;20050;-82
2021/08/09 08:46:25;;;;;;;7.22;2.80;;;26.00;99.90;;;;;;5017772;28;20510;-83
2021/08/09 08:48:58;;;;;;;5.43;2.80;;;25.80;99.90;;;;;;5023014;28;20136;-81
2021/08/09 08:51:25;;;;;;;5.47;2.80;;;25.80;99.90;;;;;;5009618;28;20426;-81
2021/08/09 08:53:53;;;;;;;4.65;2.90;;;25.60;99.90;;;;;;5010827;28;20066;-82
2021/08/09 08:56:20;;;;;;;7.07;3.05;;;25.50;99.90;;;;;;5005570;28;20300;-82
2021/08/09 08:58:47;;;;;;;6.10;3.13;;;25.40;99.90;;;;;;5017776;28;20137;-81
2021/08/09 09:01:33;;;;;;;5.45;3.20;;;25.50;99.90;;;;;;5042782;28;20085;-83
2021/08/09 09:04:19;;;;;;;6.07;3.35;;;25.50;99.90;;;;;;5010491;28;20070;-81
2021/08/09 09:06:46;;;;;;;7.57;3.10;;;25.70;99.90;;;;;;5014673;28;20061;-82
2021/08/09 09:09:21;;;;;;;3.47;2.58;;;26.00;99.90;;;;;;5007350;28;20057;-81
2021/08/09 09:11:48;;;;;;;5.32;2.90;;;26.10;99.90;;;;;;5009497;28;20129;-80
2021/08/09 09:14:15;;;;;;;4.32;2.80;;;25.60;99.90;;;;;;5009031;28;20046;-81
2021/08/09 09:16:44;;;;;;;5.38;2.70;;;25.30;99.90;;;;;;5009872;28;20069;-81
2021/08/09 09:19:28;;;;;;;5.22;3.03;;;25.10;99.90;;;;;;5012158;28;20474;-82
2021/08/09 09:21:55;;;;;;;5.07;2.90;;;24.90;99.90;;;;;;5008308;28;20085;-82
2021/08/09 09:24:23;;;;;;;4.90;3.20;;;24.80;99.90;;;;;;5012706;28;20077;-82
2021/08/09 09:26:55;;;;;;;8.30;3.20;;;24.60;99.90;;;;;;5021621;28;20119;-83
2021/08/09 09:29:23;;;;;;;9.90;3.13;;;24.50;99.90;;;;;;5003161;28;20114;-82
2021/08/09 09:31:51;;;;;;;7.93;2.97;;;24.20;99.90;;;;;;5012217;28;20073;-84
2021/08/09 09:34:22;;;;;;;6.60;3.63;;;24.00;99.90;;;;;;5014957;28;20039;-80
2021/08/09 09:36:52;;;;;;;5.55;2.97;;;23.70;99.90;;;;;;5019835;28;20111;-82
2021/08/09 09:39:35;;;;;;;7.88;3.08;;;23.60;99.90;;;;;;5006003;28;20120;-83
2021/08/09 09:42:05;;;;;;;6.15;2.75;;;23.40;99.90;;;;;;5005305;28;20051;-83
2021/08/09 09:44:34;;;;;;;5.13;2.85;;;23.40;99.90;;;;;;5019900;28;20058;-83
2021/08/09 09:47:25;;;;;;;4.72;3.00;;;23.40;99.90;;;;;;5014618;28;20046;-80
2021/08/09 09:49:54;;;;;;;6.65;3.20;;;23.50;99.90;;;;;;5006859;28;20430;-84
2021/08/09 09:52:32;;;;;;;5.63;2.90;;;23.60;99.90;;;;;;5016457;28;20050;-82
2021/08/09 09:55:01;;;;;;;6.63;3.00;;;23.50;99.90;;;;;;5019826;28;20116;-83
2021/08/09 09:57:28;;;;;;;5.85;2.88;;;23.50;99.90;;;;;;5018194;28;20106;-83
2021/08/09 09:59:57;;;;;;;5.88;3.05;;;23.60;99.90;;;;;;5003167;28;20070;-83
2021/08/09 10:02:25;;;;;;;3.00;2.45;;;23.50;99.90;;;;;;5004444;28;20050;-81
2021/08/09 10:04:53;;;;;;;7.88;3.10;;;23.60;99.90;;;;;;5012185;28;20053;-80
2021/08/09 10:07:24;;;;;;;5.13;2.40;;;23.90;99.90;;;;;;5007425;28;20046;-81
2021/08/09 10:09:54;;;;;;;7.80;3.35;;;24.00;99.90;;;;;;5013421;28;20125;-82
2021/08/09 10:12:24;;;;;;;4.43;2.47;;;24.20;99.90;;;;;;5011138;28;20065;-82
2021/08/09 10:14:54;;;;;;;5.40;3.03;;;24.30;99.90;;;;;;5008159;28;20073;-82
2021/08/09 10:17:22;;;;;;;5.13;2.70;;;24.20;99.90;;;;;;5014976;28;20081;-81
2021/08/09 10:19:50;;;;;;;5.07;2.47;;;24.20;99.90;;;;;;5010908;28;20534;-82
2021/08/09 10:22:21;;;;;;;6.55;2.95;;;24.30;99.90;;;;;;5007275;28;20149;-82
2021/08/09 10:24:51;;;;;;;3.38;2.33;;;24.40;99.90;;;;;;5008858;28;20078;-80
2021/08/09 10:27:18;;;;;;;6.78;3.05;;;24.40;99.90;;;;;;5004145;28;20046;-81
2021/08/09 10:30:17;;;;;;;5.55;3.10;;;24.20;99.90;;;;;;5003675;28;20080;-81
2021/08/09 10:32:46;;;;;;;4.72;2.70;;;24.40;99.90;;;;;;5004084;28;20074;-80
2021/08/09 10:36:04;;;;;;;5.88;2.97;;;24.20;99.90;;;;;;5003255;28;20050;-81
2021/08/09 10:38:43;;;;;;;4.32;2.45;;;24.20;99.90;;;;;;5003998;28;20054;-79
2021/08/09 10:41:35;;;;;;;4.32;2.42;;;24.20;99.90;;;;;;5003742;28;20054;-80
2021/08/09 10:44:24;;;;;;;5.82;2.90;;;24.40;99.90;;;;;;5003690;28;20054;-80
2021/08/09 10:46:53;;;;;;;4.75;2.42;;;24.60;99.90;;;;;;5003074;28;20126;-80
2021/08/09 10:49:53;;;;;;;4.38;2.28;;;24.80;99.90;;;;;;5003351;28;20053;-81
2021/08/09 10:52:37;;;;;;;4.35;2.35;;;25.00;99.90;;;;;;5004291;28;20110;-80
2021/08/09 10:55:48;;;;;;;3.90;2.40;;;25.00;99.90;;;;;;5003546;28;20110;-81
2021/08/09 10:58:56;;;;;;;5.53;2.95;;;24.70;99.90;;;;;;4923201;29;20487;-80
2021/08/09 11:01:25;;;;;;;5.50;3.05;;;24.50;99.90;;;;;;4924087;29;20529;-79
2021/08/09 11:04:16;;;;;;;5.70;2.58;;;24.60;99.90;;;;;;4986794;28;20073;-80
2021/08/09 11:06:52;;;;;;;3.85;2.42;;;24.70;99.90;;;;;;5000570;28;20486;-79
2021/08/09 11:12:17;;;;;;;4.53;2.50;;;24.90;99.90;;;;;;5020928;28;20050;-75
2021/08/09 11:15:07;;;;;;;4.70;2.70;;;25.10;99.90;;;;;;5007792;28;20049;-75
2021/08/09 11:17:44;;;;;;;5.68;2.63;;;25.10;99.90;;;;;;5033822;28;20421;-75
2021/08/09 11:20:13;;;;;;;3.58;2.28;;;25.10;99.90;;;;;;5031949;28;20459;-75
2021/08/09 11:22:41;;;;;;;6.65;2.88;;;25.10;99.90;;;;;;5035529;28;20505;-75
2021/08/09 11:25:27;;;;;;;6.80;2.72;;;25.10;99.90;;;;;;5035238;28;20135;-75
2021/08/09 11:28:07;;;;;;;7.47;3.05;;;24.90;99.90;;;;;;5034939;28;20049;-75
2021/08/09 11:30:43;;;;;;;5.47;2.65;;;24.60;99.90;;;;;;5035204;28;20176;-75
2021/08/09 11:33:26;;;;;;;5.43;2.50;;;24.50;99.90;;;;;;5034605;28;20088;-74
2021/08/09 11:35:54;;;;;;;3.35;2.15;;;24.30;99.90;;;;;;5035158;28;20150;-75
2021/08/09 11:38:21;;;;;;;5.50;2.72;;;24.40;99.90;;;;;;5034920;28;20498;-75
2021/08/09 11:40:50;;;;;;;3.25;2.45;;;24.80;99.90;;;;;;5035347;28;20140;-74
2021/08/09 11:43:23;;;;;;;4.35;2.83;;;25.00;99.90;;;;;;5034733;28;20080;-75
2021/08/09 11:45:51;;;;;;;3.80;2.65;;;25.10;99.90;;;;;;5034904;28;20132;-75
2021/08/09 11:48:25;;;;;;;4.05;2.60;;;25.10;99.90;;;;;;5035171;28;20148;-75
2021/08/09 11:50:57;;;;;;;3.38;2.33;;;25.00;99.90;;;;;;5034664;28;20085;-75
2021/08/09 11:53:24;;;;;;;5.35;2.17;;;24.80;99.90;;;;;;5034903;28;20049;-74
2021/08/09 11:55:51;;;;;;;4.28;2.70;;;24.60;99.90;;;;;;5035010;28;20417;-75
2021/08/09 11:58:35;;;;;;;4.85;2.60;;;24.50;99.90;;;;;;5034743;28;20077;-75
2021/08/09 12:01:02;;;;;;;5.30;2.33;;;24.40;99.90;;;;;;5032881;28;20173;-74
2021/08/09 12:03:29;;;;;;;3.75;2.30;;;24.40;99.90;;;;;;5034093;28;20474;-74
2021/08/09 12:05:57;;;;;;;3.47;2.13;;;24.40;99.90;;;;;;5034788;28;20057;-75
2021/08/09 12:08:25;;;;;;;4.70;2.40;;;24.40;99.90;;;;;;5034817;28;20127;-75
2021/08/09 12:10:52;;;;;;;5.20;2.92;;;24.60;99.90;;;;;;5034727;28;20057;-75
2021/08/09 12:13:28;;;;;;;5.03;2.78;;;24.80;99.90;;;;;;5034736;28;20060;-75
2021/08/09 12:16:14;;;;;;;4.30;2.50;;;25.00;99.90;;;;;;5034441;28;20686;-75
2021/08/09 12:18:52;;;;;;;3.40;1.95;;;25.10;99.90;;;;;;5034565;28;20053;-75
2021/08/09 12:21:19;;;;;;;7.85;2.60;;;25.00;99.90;;;;;;5034567;28;20084;-75
2021/08/09 12:23:52;;;;;;;3.70;2.35;;;24.90;99.90;;;;;;5034315;28;20053;-75
2021/08/09 12:26:30;;;;;;;3.10;2.22;;;24.90;99.90;;;;;;5034480;28;20053;-75
2021/08/09 12:28:59;;;;;;;6.50;3.13;;;24.70;99.90;;;;;;5034256;28;20061;-75
2021/08/09 12:31:31;;;;;;;3.97;2.47;;;24.40;99.90;;;;;;5033869;28;20156;-74
2021/08/09 12:33:59;;;;;;;5.20;2.22;;;24.30;99.90;;;;;;5033667;28;20462;-75
2021/08/09 12:36:26;;;;;;;3.60;2.20;;;24.10;99.90;;;;;;5033909;28;20057;-75
2021/08/09 12:38:53;;;;;;;3.88;2.47;;;24.00;99.90;;;;;;5033975;28;20444;-74
2021/08/09 12:41:25;;;;;;;7.78;3.67;;;24.10;99.90;;;;;;5033966;28;20159;-74
2021/08/09 12:43:52;;;;;;;5.90;2.53;;;24.10;99.90;;;;;;5033836;28;20143;-75
2021/08/09 12:46:20;;;;;;;3.45;2.45;;;24.00;99.90;;;;;;5034486;28;20046;-75
2021/08/09 12:48:50;;;;;;;4.07;2.03;;;23.90;99.90;;;;;;5033903;28;20049;-75
2021/08/09 12:51:18;;;;;;;4.40;2.45;;;23.90;99.90;;;;;;5034512;28;20053;-75
2021/08/09 12:53:45;;;;;;;3.67;2.20;;;24.00;99.90;;;;;;5035295;28;20152;-75
2021/08/09 12:56:12;;;;;;;4.00;2.25;;;23.90;99.90;;;;;;5033485;28;20049;-75
2021/08/09 12:58:40;;;;;;;3.30;2.47;;;23.80;99.90;;;;;;5033441;28;20045;-75
2021/08/09 13:01:07;;;;;;;5.20;2.72;;;23.60;99.90;;;;;;5032960;28;20053;-75
2021/08/09 13:03:34;;;;;;;7.78;3.28;;;23.60;99.90;;;;;;5033189;28;20144;-76
2021/08/09 13:06:03;;;;;;;4.50;2.38;;;23.50;99.90;;;;;;5033076;28;20528;-74
2021/08/09 13:08:31;;;;;;;4.18;2.22;;;23.40;99.90;;;;;;5033182;28;20103;-74